Time;durP1;ratioP1;P1;durP2;ratioP2;P2;SDS_P1;SDS_P2;PMS_P1;PMS_P2;Temp;Humidity;BMP_temperature;BMP_pressure;BME280_temperature;BME280_humidity;BME280_pressure;Samples;Min_cycle;Max_cycle;Signal;HPM_P1;HPM_P2
2022/03/18 00:00:49;;;;;;;19.13;6.70;;;;;;;-145.18;100.00;46621.31;5052949;28;20021;-65
2022/03/18 00:03:14;;;;;;;14.93;5.77;;;;;;;-145.18;100.00;46615.47;5052144;28;20350;-65
2022/03/18 00:05:41;;;;;;;16.50;6.53;;;;;;;-145.18;100.00;46617.41;5034940;28;20033;-65
2022/03/18 00:08:07;;;;;;;15.73;6.38;;;;;;;-145.18;100.00;46652.59;5052413;28;20021;-65
2022/03/18 00:10:33;;;;;;;14.07;7.67;;;;;;;-145.18;100.00;46640.88;5034678;28;20032;-65
2022/03/18 00:12:58;;;;;;;19.45;6.60;;;;;;;-145.18;100.00;46633.06;5052235;28;20040;-65
2022/03/18 00:15:24;;;;;;;16.30;7.03;;;;;;;-145.18;100.00;46635.00;5052603;28;20063;-65
2022/03/18 00:17:51;;;;;;;12.50;5.90;;;;;;;-145.18;100.00;46584.22;5052066;28;20029;-65
2022/03/18 00:20:16;;;;;;;17.45;6.72;;;;;;;-145.18;100.00;46586.16;5052522;28;20025;-65
2022/03/18 00:22:43;;;;;;;16.43;6.00;;;;;;;-145.18;100.00;46635.00;5052257;28;20040;-66
2022/03/18 00:25:10;;;;;;;21.92;7.00;;;;;;;-145.18;100.00;46636.94;5052664;28;20028;-66
2022/03/18 00:27:38;;;;;;;15.13;6.68;;;;;;;-145.18;100.00;46633.06;5051965;28;20087;-66
2022/03/18 00:30:05;;;;;;;21.60;6.28;;;;;;;-145.18;100.00;46592.03;5052523;28;20021;-66
2022/03/18 00:32:30;;;;;;;15.43;6.75;;;;;;;-145.18;100.00;46650.63;5050711;28;20072;-66
2022/03/18 00:34:56;;;;;;;13.20;6.07;;;;;;;-145.18;100.00;46623.28;5052611;28;20064;-65
2022/03/18 00:37:21;;;;;;;17.47;6.60;;;;;;;-145.18;100.00;46613.50;5051854;28;20037;-65
2022/03/18 00:39:46;;;;;;;12.47;5.77;;;;;;;-145.18;100.00;46640.88;5052167;28;20065;-65
2022/03/18 00:42:12;;;;;;;10.30;5.77;;;;;;;-145.18;100.00;46636.94;5051338;28;20374;-65
2022/03/18 00:44:39;;;;;;;13.37;6.23;;;;;;;-145.18;100.00;46633.06;5052503;28;20116;-66
2022/03/18 00:52:03;;;;;;;16.30;6.15;;;;;;;-145.18;100.00;46623.28;5051894;28;20041;-66
2022/03/18 00:52:35;;;;;;;22.05;6.63;;;;;;;-145.18;100.00;46574.44;5051424;28;19924;-65
2022/03/18 00:55:02;;;;;;;15.02;6.72;;;;;;;-145.18;100.00;46578.34;5051959;28;20115;-66
2022/03/18 00:57:27;;;;;;;15.10;7.05;;;;;;;-145.18;100.00;46574.44;5051379;28;20029;-66
2022/03/18 00:59:52;;;;;;;16.13;6.30;;;;;;;-145.18;100.00;46584.22;5051908;28;20043;-66
2022/03/18 01:02:18;;;;;;;15.20;7.33;;;;;;;-145.18;100.00;46584.22;5051297;28;20061;-65
2022/03/18 01:04:43;;;;;;;18.77;6.83;;;;;;;-145.18;100.00;46576.41;5045031;28;20084;-66
2022/03/18 01:07:09;;;;;;;12.37;6.80;;;;;;;-145.18;100.00;46580.31;5013981;28;20068;-66
2022/03/18 01:09:34;;;;;;;18.47;6.90;;;;;;;-145.18;100.00;46578.34;5031343;28;20078;-66
2022/03/18 01:12:00;;;;;;;15.67;7.43;;;;;;;-145.18;100.00;46586.16;5031397;28;20120;-66
2022/03/18 01:14:26;;;;;;;12.33;6.23;;;;;;;-145.18;100.00;46586.16;5031294;28;20037;-66
2022/03/18 01:16:51;;;;;;;11.93;5.90;;;;;;;-145.18;100.00;46633.06;5031382;28;20044;-66
2022/03/18 01:19:18;;;;;;;12.90;6.23;;;;;;;-145.18;100.00;46652.59;5031555;28;20030;-65
2022/03/18 01:21:43;;;;;;;13.80;6.30;;;;;;;-145.18;100.00;46636.94;5030754;28;20037;-65
2022/03/18 01:24:09;;;;;;;16.50;6.73;;;;;;;-145.18;100.00;46627.19;5031531;28;20501;-65
2022/03/18 01:26:34;;;;;;;12.30;6.53;;;;;;;-145.18;100.00;46584.22;5031060;28;20030;-65
2022/03/18 01:29:00;;;;;;;15.37;7.20;;;;;;;-145.18;100.00;46580.31;5031458;28;20569;-66
2022/03/18 01:31:26;;;;;;;16.50;7.10;;;;;;;-145.18;100.00;46629.13;5030581;28;20041;-66
2022/03/18 01:33:52;;;;;;;10.95;6.22;;;;;;;-145.18;100.00;46633.06;5031227;28;20632;-66
2022/03/18 01:36:17;;;;;;;14.90;7.40;;;;;;;-145.18;100.00;46586.16;5031075;28;20034;-66
2022/03/18 01:38:43;;;;;;;18.13;7.83;;;;;;;-145.18;100.00;46580.31;5030977;28;20029;-66
2022/03/18 01:41:08;;;;;;;18.93;6.93;;;;;;;-145.18;100.00;46582.25;5031287;28;20033;-66
2022/03/18 01:43:41;;;;;;;14.90;6.93;;;;;;;-145.18;100.00;46584.22;5030618;28;20112;-66
2022/03/18 01:46:07;;;;;;;19.83;6.70;;;;;;;-145.18;100.00;46625.22;5030894;28;20034;-65
2022/03/18 01:48:32;;;;;;;18.50;7.35;;;;;;;-145.18;100.00;46582.25;5030560;28;20040;-65
2022/03/18 01:50:58;;;;;;;12.67;6.33;;;;;;;-145.18;100.00;46586.16;5031144;28;20398;-66
2022/03/18 01:53:24;;;;;;;11.07;6.20;;;;;;;-145.18;100.00;46631.09;5030232;28;20037;-66
2022/03/18 01:55:49;;;;;;;12.85;6.47;;;;;;;-145.18;100.00;46633.06;5013358;28;20040;-65
2022/03/18 01:58:15;;;;;;;13.23;6.63;;;;;;;-145.18;100.00;46615.47;5030169;28;20030;-65
2022/03/18 02:03:16;;;;;;;14.25;5.93;;;;;;;-145.18;100.00;46627.19;5104192;22;20069;-65
2022/03/18 02:05:41;;;;;;;11.43;5.93;;;;;;;-145.18;100.00;46584.22;5015649;28;20042;-65
2022/03/18 02:08:10;;;;;;;11.53;6.17;;;;;;;-145.18;100.00;46621.31;5010562;28;20495;-64
2022/03/18 02:10:37;;;;;;;19.02;8.00;;;;;;;-145.18;100.00;46576.41;5010392;28;20026;-65
2022/03/18 02:13:03;;;;;;;15.85;7.10;;;;;;;-145.18;100.00;46578.34;5010191;28;20049;-65
2022/03/18 02:15:28;;;;;;;14.70;5.95;;;;;;;-145.18;100.00;46572.50;5010299;28;20073;-64
2022/03/18 02:17:54;;;;;;;11.60;6.00;;;;;;;-145.18;100.00;46580.31;5010551;28;20042;-65
2022/03/18 02:20:20;;;;;;;13.20;6.17;;;;;;;-145.18;100.00;46586.16;5018315;28;20033;-64
2022/03/18 02:22:46;;;;;;;16.80;6.50;;;;;;;-145.18;100.00;46578.34;5029964;28;20029;-64
2022/03/18 02:25:14;;;;;;;20.97;8.47;;;;;;;-145.18;100.00;46572.50;5030551;28;20036;-64
2022/03/18 02:27:52;;;;;;;17.95;8.20;;;;;;;-145.18;100.00;46570.53;5012605;28;20116;-64
2022/03/18 02:30:17;;;;;;;16.17;7.57;;;;;;;-145.18;100.00;46576.41;5030203;28;20100;-65
2022/03/18 02:32:43;;;;;;;18.00;7.83;;;;;;;-145.18;100.00;46578.34;5029838;28;20137;-65
2022/03/18 02:35:08;;;;;;;16.07;7.63;;;;;;;-145.18;100.00;46625.22;5030171;28;20061;-65
2022/03/18 02:37:34;;;;;;;15.37;6.27;;;;;;;-145.18;100.00;46627.19;5030115;28;20033;-65
2022/03/18 02:39:59;;;;;;;11.40;5.97;;;;;;;-145.18;100.00;46627.19;5012094;28;20029;-65
2022/03/18 02:42:24;;;;;;;16.43;7.17;;;;;;;-145.18;100.00;46627.19;5029739;28;20096;-65
2022/03/18 02:44:50;;;;;;;13.60;6.27;;;;;;;-145.18;100.00;46629.13;5030126;28;20038;-65
2022/03/18 02:47:16;;;;;;;13.20;6.50;;;;;;;-145.18;100.00;46623.28;5030064;28;20044;-65
2022/03/18 02:49:41;;;;;;;15.33;6.60;;;;;;;-145.18;100.00;46619.38;5029850;28;20037;-65
2022/03/18 02:52:07;;;;;;;20.20;6.60;;;;;;;-145.18;100.00;46576.41;5029438;28;20041;-65
2022/03/18 02:54:33;;;;;;;20.93;7.17;;;;;;;-145.18;100.00;46572.50;5029749;28;20396;-65
2022/03/18 02:56:59;;;;;;;10.98;6.63;;;;;;;-145.18;100.00;46572.50;5029402;28;20084;-65
2022/03/18 02:59:24;;;;;;;12.20;5.87;;;;;;;-145.18;100.00;46562.72;5029919;28;20030;-65
2022/03/18 03:01:49;;;;;;;16.50;6.63;;;;;;;-145.18;100.00;46568.59;5029255;28;20437;-65
2022/03/18 03:04:15;;;;;;;10.83;6.80;;;;;;;-145.18;100.00;46570.53;5029910;28;20060;-65
2022/03/18 03:09:29;;;;;;;15.70;6.50;;;;;;;-145.18;100.00;46568.59;5010369;28;20116;-64
2022/03/18 03:11:56;;;;;;;14.00;6.90;;;;;;;-145.18;100.00;46564.69;5029123;28;20601;-64
2022/03/18 03:14:21;;;;;;;15.45;6.72;;;;;;;-145.18;100.00;46566.63;5029857;28;20151;-64
2022/03/18 03:16:47;;;;;;;14.17;7.57;;;;;;;-145.18;100.00;46564.69;5029458;28;20037;-64
2022/03/18 03:19:13;;;;;;;10.03;6.23;;;;;;;-145.18;100.00;46578.34;5029562;28;20389;-64
2022/03/18 03:21:40;;;;;;;13.70;6.40;;;;;;;-145.18;100.00;46582.25;5029766;28;20068;-64
2022/03/18 03:24:05;;;;;;;13.85;6.35;;;;;;;-145.18;100.00;46588.13;5029290;28;20038;-64
2022/03/18 03:26:31;;;;;;;16.53;6.50;;;;;;;-145.18;100.00;46582.25;5029799;28;20032;-64
2022/03/18 03:28:56;;;;;;;14.30;6.13;;;;;;;-145.18;100.00;46576.41;5029079;28;20470;-64
2022/03/18 03:31:22;;;;;;;14.07;6.07;;;;;;;-145.18;100.00;46564.69;5029604;28;20091;-64
2022/03/18 03:33:47;;;;;;;15.23;6.67;;;;;;;-145.18;100.00;46572.50;5028997;28;20041;-64
2022/03/18 03:36:13;;;;;;;13.83;7.00;;;;;;;-145.18;100.00;46570.53;5045030;28;20599;-64
2022/03/18 03:38:38;;;;;;;15.77;7.40;;;;;;;-145.18;100.00;46572.50;5049263;28;20537;-64
2022/03/18 03:41:04;;;;;;;16.87;7.20;;;;;;;-145.18;100.00;46572.50;5049526;28;20029;-64
2022/03/18 03:43:30;;;;;;;14.80;7.18;;;;;;;-145.18;100.00;46568.59;5049151;28;20125;-64
2022/03/18 03:45:55;;;;;;;12.87;7.27;;;;;;;-145.18;100.00;46570.53;5049336;28;20032;-64
2022/03/18 03:48:21;;;;;;;17.00;7.57;;;;;;;-145.18;100.00;46570.53;5049131;28;20515;-64
2022/03/18 03:50:46;;;;;;;19.37;7.77;;;;;;;-145.18;100.00;46566.63;5049621;28;20029;-64
2022/03/18 03:53:11;;;;;;;20.23;9.00;;;;;;;-145.18;100.00;46574.44;5048536;28;20083;-64
2022/03/18 03:55:39;;;;;;;20.70;9.60;;;;;;;-145.18;100.00;46568.59;5049525;28;20571;-64
2022/03/18 03:58:08;;;;;;;23.13;8.68;;;;;;;-145.18;100.00;46572.50;5030823;28;20493;-65
2022/03/18 04:00:36;;;;;;;22.90;9.48;;;;;;;-145.18;100.00;46619.38;5049386;28;20095;-64
2022/03/18 04:03:05;;;;;;;16.75;8.38;;;;;;;-145.18;100.00;46625.22;5048391;28;20045;-65
2022/03/18 04:05:32;;;;;;;21.85;9.90;;;;;;;-145.18;100.00;46629.13;5049314;28;20033;-64
2022/03/18 04:07:57;;;;;;;17.58;8.23;;;;;;;-145.18;100.00;46650.63;5050779;28;20036;-65
2022/03/18 04:10:22;;;;;;;19.83;8.07;;;;;;;-145.18;100.00;46660.41;5052796;28;20116;-64
2022/03/18 04:12:48;;;;;;;15.23;7.77;;;;;;;-145.18;100.00;46660.41;5051970;28;20025;-64
2022/03/18 04:15:13;;;;;;;16.23;8.17;;;;;;;-145.18;100.00;46635.00;5052931;28;20029;-64
2022/03/18 04:17:48;;;;;;;13.07;6.57;;;;;;;-145.18;100.00;46570.53;5052395;28;20095;-64
2022/03/18 04:20:21;;;;;;;15.65;7.20;;;;;;;-145.18;100.00;46566.63;5052967;28;20540;-64
2022/03/18 04:22:47;;;;;;;17.85;8.30;;;;;;;-145.18;100.00;46566.63;5052147;28;20484;-64
2022/03/18 04:25:13;;;;;;;13.18;8.05;;;;;;;-145.18;100.00;46568.59;5052340;28;20029;-64
2022/03/18 04:27:39;;;;;;;16.03;8.50;;;;;;;-145.18;100.00;46572.50;5051939;28;20035;-64
2022/03/18 04:30:07;;;;;;;16.75;8.13;;;;;;;-145.18;100.00;46572.50;5052567;28;20025;-64
2022/03/18 04:32:33;;;;;;;15.00;7.60;;;;;;;-145.18;100.00;46566.63;5052076;28;20492;-64
2022/03/18 04:34:59;;;;;;;18.20;7.63;;;;;;;-145.18;100.00;46621.31;5052048;28;20051;-64
2022/03/18 04:37:25;;;;;;;18.03;7.67;;;;;;;-145.18;100.00;46625.22;5051907;28;20069;-64
2022/03/18 04:39:50;;;;;;;15.20;8.40;;;;;;;-145.18;100.00;46621.31;5051841;28;20091;-64
2022/03/18 04:42:16;;;;;;;13.50;6.93;;;;;;;-145.18;100.00;46580.31;5052009;28;20083;-64
2022/03/18 04:44:41;;;;;;;13.90;7.37;;;;;;;-145.18;100.00;46570.53;5052067;28;20057;-64
2022/03/18 04:47:06;;;;;;;13.83;8.17;;;;;;;-145.18;100.00;46572.50;5034021;28;20110;-64
2022/03/18 04:49:32;;;;;;;11.53;6.77;;;;;;;-145.18;100.00;46570.53;5051893;28;20029;-64
2022/03/18 04:51:57;;;;;;;11.83;6.20;;;;;;;-145.18;100.00;46568.59;5051616;28;20489;-65
2022/03/18 04:54:23;;;;;;;8.43;5.50;;;;;;;-145.18;100.00;46574.44;5051483;28;20064;-64
2022/03/18 04:59:32;;;;;;;13.25;6.05;;;;;;;-145.18;100.00;46578.34;5052065;28;20095;-64
2022/03/18 05:01:57;;;;;;;10.60;6.40;;;;;;;-145.18;100.00;46576.41;5050997;28;20044;-64
2022/03/18 05:04:23;;;;;;;11.93;6.83;;;;;;;-145.18;100.00;46580.31;5050824;28;20053;-64
2022/03/18 05:06:48;;;;;;;16.30;6.60;;;;;;;-145.18;100.00;46576.41;5052193;28;20428;-64
2022/03/18 05:09:14;;;;;;;10.50;6.37;;;;;;;-145.18;100.00;46576.41;5033328;28;20057;-64
2022/03/18 05:11:39;;;;;;;11.70;6.67;;;;;;;-145.18;100.00;46576.41;5050246;28;20048;-64
2022/03/18 05:14:05;;;;;;;13.73;6.93;;;;;;;-145.18;100.00;46580.31;5050133;28;20063;-64
2022/03/18 05:16:31;;;;;;;13.90;6.78;;;;;;;-145.18;100.00;46576.41;5050897;28;20021;-64
2022/03/18 05:18:57;;;;;;;15.27;7.37;;;;;;;-145.18;100.00;46574.44;5049858;28;20079;-64
2022/03/18 05:21:22;;;;;;;14.00;7.90;;;;;;;-145.18;100.00;46572.50;5050898;28;20485;-65
2022/03/18 05:23:48;;;;;;;12.23;6.93;;;;;;;-145.18;100.00;46568.59;5050545;28;20021;-64
2022/03/18 05:26:13;;;;;;;17.53;7.27;;;;;;;-145.18;100.00;46566.63;5050323;28;20028;-64
2022/03/18 05:28:39;;;;;;;17.53;8.40;;;;;;;-145.18;100.00;46566.63;5049779;28;20485;-65
2022/03/18 05:31:04;;;;;;;17.77;8.37;;;;;;;-145.18;100.00;46568.59;5050792;28;20025;-65
2022/03/18 05:33:30;;;;;;;15.90;8.60;;;;;;;-145.18;100.00;46572.50;5033068;28;20460;-64
2022/03/18 05:35:55;;;;;;;14.10;8.23;;;;;;;-145.18;100.00;46574.44;5051313;28;20120;-65
2022/03/18 05:38:21;;;;;;;12.93;7.83;;;;;;;-145.18;100.00;46574.44;5051198;28;20082;-64
2022/03/18 05:40:46;;;;;;;15.10;7.83;;;;;;;-145.18;100.00;46578.34;5033404;28;20178;-64
2022/03/18 05:43:11;;;;;;;11.37;6.70;;;;;;;-145.18;100.00;46570.53;5050889;28;20036;-64
2022/03/18 05:45:37;;;;;;;18.30;7.47;;;;;;;-145.18;100.00;46578.34;5051303;28;20470;-64
2022/03/18 05:48:06;;;;;;;23.27;8.40;;;;;;;-145.18;100.00;46574.44;5050793;28;20036;-64
2022/03/18 05:50:32;;;;;;;16.05;8.10;;;;;;;-145.18;100.00;46574.44;5050362;28;20469;-64
2022/03/18 05:52:57;;;;;;;10.48;7.25;;;;;;;-145.18;100.00;46574.44;5050334;28;20041;-64
2022/03/18 05:55:24;;;;;;;14.23;6.60;;;;;;;-145.18;100.00;46568.59;5050985;28;20481;-64
2022/03/18 05:57:51;;;;;;;18.48;7.40;;;;;;;-145.18;100.00;46568.59;5050493;28;20366;-64
2022/03/18 06:00:17;;;;;;;16.52;8.35;;;;;;;-145.18;100.00;46564.69;5050814;28;20041;-64
2022/03/18 06:02:43;;;;;;;20.93;7.87;;;;;;;-145.18;100.00;46572.50;5050165;28;20056;-64
2022/03/18 06:05:09;;;;;;;20.77;8.37;;;;;;;-145.18;100.00;46570.53;5050777;28;20650;-64
2022/03/18 06:07:37;;;;;;;18.88;8.77;;;;;;;-145.18;100.00;46574.44;5032636;28;20449;-64
2022/03/18 06:12:46;;;;;;;18.27;9.15;;;;;;;-145.18;100.00;46629.13;5050231;28;20099;-64
2022/03/18 06:15:12;;;;;;;19.80;10.17;;;;;;;-145.18;100.00;46629.13;5032665;28;20041;-64
2022/03/18 06:17:37;;;;;;;17.60;9.07;;;;;;;-145.18;100.00;46631.09;5050354;28;20029;-64
2022/03/18 06:20:03;;;;;;;20.80;7.30;;;;;;;-145.18;100.00;46592.03;5050390;28;20028;-64
2022/03/18 06:22:29;;;;;;;14.10;8.10;;;;;;;-145.18;100.00;46578.34;5050323;28;20041;-64
2022/03/18 06:24:54;;;;;;;18.27;9.05;;;;;;;-145.18;100.00;46574.44;5049944;28;20501;-64
2022/03/18 06:27:19;;;;;;;16.37;9.10;;;;;;;-145.18;100.00;46572.50;5050659;28;20043;-64
2022/03/18 06:29:45;;;;;;;23.67;10.73;;;;;;;-145.18;100.00;46572.50;5049313;28;20076;-64
2022/03/18 06:32:11;;;;;;;19.97;8.90;;;;;;;-145.18;100.00;46572.50;5050499;28;20473;-64
2022/03/18 06:34:37;;;;;;;19.33;9.13;;;;;;;-145.18;100.00;46570.53;5050048;28;20603;-64
2022/03/18 06:37:03;;;;;;;18.30;9.80;;;;;;;-145.18;100.00;46570.53;5043316;28;20028;-64
2022/03/18 06:39:28;;;;;;;19.73;9.93;;;;;;;-145.18;100.00;46566.63;5030182;28;20045;-64
2022/03/18 06:41:54;;;;;;;22.43;10.33;;;;;;;-145.18;100.00;46554.91;5030206;28;20116;-64
2022/03/18 06:44:20;;;;;;;22.40;9.30;;;;;;;-145.18;100.00;46560.78;5029125;28;20048;-64
2022/03/18 06:46:45;;;;;;;23.83;9.50;;;;;;;-145.18;100.00;46558.81;5029597;28;20366;-65
2022/03/18 06:49:10;;;;;;;18.93;10.30;;;;;;;-145.18;100.00;46556.88;5031660;28;20481;-64
2022/03/18 06:51:36;;;;;;;16.23;9.07;;;;;;;-145.18;100.00;46558.81;5049998;28;20493;-64
2022/03/18 06:54:02;;;;;;;25.73;10.03;;;;;;;-145.18;100.00;46554.91;5031714;28;20790;-64
2022/03/18 06:56:27;;;;;;;20.27;9.57;;;;;;;-145.18;100.00;46554.91;5048467;28;20106;-64
2022/03/18 06:58:53;;;;;;;18.00;9.87;;;;;;;-145.18;100.00;46551.00;5048699;28;20157;-64
2022/03/18 07:01:21;;;;;;;18.60;10.27;;;;;;;-145.18;100.00;46558.81;5049251;28;20078;-64
2022/03/18 07:03:47;;;;;;;22.35;9.90;;;;;;;-145.18;100.00;46551.00;5048361;28;20300;-64
2022/03/18 07:06:12;;;;;;;17.92;9.52;;;;;;;-145.18;100.00;46556.88;5048782;28;20075;-65
2022/03/18 07:08:37;;;;;;;15.30;9.80;;;;;;;-145.18;100.00;46554.91;5047688;28;20064;-64
2022/03/18 07:11:03;;;;;;;24.43;10.10;;;;;;;-145.18;100.00;46551.00;5047951;28;20037;-64
2022/03/18 07:13:29;;;;;;;20.57;9.80;;;;;;;-145.18;100.00;46545.16;5048524;28;20087;-64
2022/03/18 07:15:54;;;;;;;23.93;10.23;;;;;;;-145.18;100.00;46539.28;5031200;28;20029;-64
2022/03/18 07:18:20;;;;;;;25.47;10.87;;;;;;;-145.18;100.00;46547.09;5048575;28;20040;-65
2022/03/18 07:20:45;;;;;;;18.17;9.93;;;;;;;-145.18;100.00;46537.34;5031328;28;20408;-65
2022/03/18 07:23:12;;;;;;;23.53;11.03;;;;;;;-145.18;100.00;46543.19;5048644;28;20079;-65
2022/03/18 07:25:41;;;;;;;24.52;11.48;;;;;;;-145.18;100.00;46539.28;5049188;28;20079;-65
2022/03/18 07:28:08;;;;;;;26.65;12.55;;;;;;;-145.18;100.00;46551.00;5048598;28;20108;-66
2022/03/18 07:30:34;;;;;;;21.27;11.68;;;;;;;-145.18;100.00;46543.19;5049159;28;20405;-65
2022/03/18 07:33:00;;;;;;;29.23;12.30;;;;;;;-145.18;100.00;46549.06;5048502;28;20091;-65
2022/03/18 07:35:25;;;;;;;24.17;11.77;;;;;;;-145.18;100.00;46547.09;5049190;28;20033;-65
2022/03/18 07:37:51;;;;;;;22.80;13.60;;;;;;;-145.18;100.00;46549.06;5048971;28;20123;-65
2022/03/18 07:40:18;;;;;;;33.07;14.63;;;;;;;-145.18;100.00;46549.06;5049700;28;20124;-65
2022/03/18 07:42:52;;;;;;;30.70;15.18;;;;;;;-145.18;100.00;46554.91;5053254;28;20459;-65
2022/03/18 07:45:22;;;;;;;37.17;17.27;;;;;;;-145.18;100.00;46552.97;5053593;28;20412;-65
2022/03/18 07:47:51;;;;;;;33.03;15.70;;;;;;;-145.18;100.00;46547.09;5053312;28;20324;-65
2022/03/18 07:50:20;;;;;;;31.40;14.97;;;;;;;-145.18;100.00;46545.16;5053383;28;20278;-65
2022/03/18 07:52:49;;;;;;;28.57;14.80;;;;;;;-145.18;100.00;46551.00;5035234;28;20294;-65
2022/03/18 07:55:16;;;;;;;32.47;14.27;;;;;;;-145.18;100.00;46541.25;5053345;28;20301;-65
2022/03/18 07:57:41;;;;;;;33.70;15.67;;;;;;;-145.18;100.00;46541.25;5053193;28;20758;-65
2022/03/18 08:00:08;;;;;;;35.13;14.70;;;;;;;-145.18;100.00;46545.16;5052850;28;20369;-65
2022/03/18 08:02:34;;;;;;;33.77;15.50;;;;;;;-145.18;100.00;46547.09;5052896;28;20033;-65
2022/03/18 08:04:59;;;;;;;32.10;14.20;;;;;;;-145.18;100.00;46558.81;5052850;28;20734;-66
2022/03/18 08:07:26;;;;;;;33.10;15.27;;;;;;;-145.18;100.00;46564.69;5052927;28;20032;-65
2022/03/18 08:09:52;;;;;;;30.90;15.63;;;;;;;-145.18;100.00;46564.69;5052491;28;20547;-66
2022/03/18 08:12:17;;;;;;;30.50;15.57;;;;;;;-145.18;100.00;46566.63;5034701;28;20330;-65
2022/03/18 08:14:43;;;;;;;29.13;15.40;;;;;;;-145.18;100.00;46578.34;5052096;28;20056;-65
2022/03/18 08:17:08;;;;;;;41.07;15.33;;;;;;;-145.18;100.00;46574.44;5051989;28;20151;-65
2022/03/18 08:19:34;;;;;;;29.73;14.60;;;;;;;-145.18;100.00;46588.13;5052367;28;20025;-65
2022/03/18 08:22:01;;;;;;;29.47;14.03;;;;;;;-145.18;100.00;46593.97;5052337;28;20397;-65
2022/03/18 08:24:27;;;;;;;30.20;13.57;;;;;;;-145.18;100.00;46609.59;5051871;28;20063;-65
2022/03/18 08:26:54;;;;;;;29.80;12.47;;;;;;;-145.18;100.00;46613.50;5035021;28;20754;-65
2022/03/18 08:29:19;;;;;;;24.67;12.50;;;;;;;-145.18;100.00;46625.22;5052321;28;20523;-65
2022/03/18 08:31:45;;;;;;;27.23;12.17;;;;;;;-145.18;100.00;46613.50;5052440;28;20286;-65
2022/03/18 08:34:10;;;;;;;25.03;10.93;;;;;;;-145.18;100.00;46629.13;5034253;28;20044;-66
2022/03/18 08:36:35;;;;;;;26.40;11.40;;;;;;;-145.18;100.00;46636.94;5052803;28;20060;-65
2022/03/18 08:39:01;;;;;;;21.60;10.30;;;;;;;-145.18;100.00;46691.66;5052097;28;20124;-65
2022/03/18 08:41:26;;;;;;;23.47;11.23;;;;;;;-145.18;100.00;46691.66;5052924;28;20071;-65
2022/03/18 08:43:52;;;;;;;27.17;11.50;;;;;;;-145.18;100.00;46705.31;5051836;28;20657;-66
2022/03/18 08:46:17;;;;;;;30.87;13.03;;;;;;;-145.18;100.00;46697.50;5052367;28;20031;-65
2022/03/18 08:48:45;;;;;;;23.73;12.20;;;;;;;-145.18;100.00;46697.50;5052103;28;20028;-66
2022/03/18 08:51:11;;;;;;;22.00;10.97;;;;;;;-145.18;100.00;46703.38;5051959;28;20555;-66
2022/03/18 08:53:37;;;;;;;25.50;11.73;;;;;;;-145.18;100.00;46713.13;5050906;28;20278;-65
2022/03/18 08:56:03;;;;;;;24.00;11.60;;;;;;;-145.18;100.00;46719.00;5051988;28;20109;-65
2022/03/18 08:58:28;;;;;;;23.10;11.27;;;;;;;-145.18;100.00;46715.09;5051827;28;20262;-65
2022/03/18 09:00:53;;;;;;;27.13;12.47;;;;;;;-145.18;100.00;46703.38;5052181;28;20032;-65
2022/03/18 09:03:19;;;;;;;26.67;12.57;;;;;;;-145.18;100.00;46695.56;5044060;28;20049;-66
2022/03/18 09:05:44;;;;;;;25.93;12.30;;;;;;;-145.18;100.00;46693.59;5032291;28;20052;-65
2022/03/18 09:08:10;;;;;;;22.30;11.50;;;;;;;-145.18;100.00;46701.41;5013902;28;20088;-65
2022/03/18 09:10:35;;;;;;;25.27;11.00;;;;;;;-145.18;100.00;46691.66;5014556;28;20104;-65
2022/03/18 09:13:01;;;;;;;28.13;11.20;;;;;;;-145.18;100.00;46709.22;5013621;28;20455;-66
2022/03/18 09:15:29;;;;;;;31.63;10.93;;;;;;;-145.18;100.00;46724.84;5032141;28;20045;-66
2022/03/18 09:17:54;;;;;;;21.03;10.77;;;;;;;-145.18;100.00;46758.06;5031981;28;20029;-65
2022/03/18 09:20:21;;;;;;;25.37;9.87;;;;;;;-145.18;100.00;46808.84;5031488;28;20290;-65
2022/03/18 09:22:46;;;;;;;17.57;8.93;;;;;;;-145.18;100.00;47013.97;5032095;28;20486;-65
2022/03/18 09:25:12;;;;;;;17.57;8.40;;;;;;;-145.18;100.00;47232.75;5031159;28;20282;-65
2022/03/18 09:27:38;;;;;;;18.77;7.57;;;;;;;-145.18;100.00;47391.00;5030972;28;20041;-66
2022/03/18 09:30:04;;;;;;;13.27;6.87;;;;;;;-145.18;100.00;47394.91;5029967;28;20076;-65
2022/03/18 09:32:30;;;;;;;11.73;6.53;;;;;;;-145.18;100.00;47353.88;5031344;28;20037;-65
2022/03/18 09:34:56;;;;;;;10.87;3.67;;;;;;;-145.18;100.00;47344.13;5030940;28;20826;-65
2022/03/18 09:37:22;;;;;;;13.93;4.23;;;;;;;-145.18;100.00;47340.22;5031617;28;20294;-65
2022/03/18 09:39:47;;;;;;;9.47;4.53;;;;;;;-145.18;100.00;47344.13;5030801;28;20275;-65
2022/03/18 09:42:13;;;;;;;14.20;3.83;;;;;;;-145.18;100.00;47318.72;5030834;28;20029;-65
2022/03/18 09:44:39;;;;;;;11.93;4.03;;;;;;;-145.18;100.00;47322.63;5030862;28;20072;-65
2022/03/18 09:47:07;;;;;;;14.00;4.60;;;;;;;-145.18;100.00;47308.97;5031067;28;20397;-65
2022/03/18 09:49:33;;;;;;;12.40;4.73;;;;;;;-145.18;100.00;47340.22;5013132;28;20362;-65
2022/03/18 09:51:59;;;;;;;11.73;5.37;;;;;;;-145.18;100.00;47293.31;5030962;28;20348;-65
2022/03/18 09:54:29;;;;;;;14.43;4.93;;;;;;;-145.18;100.00;47307.00;5030726;28;20275;-65
2022/03/18 09:56:55;;;;;;;12.07;5.47;;;;;;;-145.18;100.00;47301.16;5031187;28;20758;-66
2022/03/18 09:59:23;;;;;;;16.23;6.23;;;;;;;-145.18;100.00;47299.19;5030381;28;20706;-65
2022/03/18 10:01:49;;;;;;;15.30;6.83;;;;;;;-145.18;100.00;47285.50;5030722;28;20354;-65
2022/03/18 10:04:15;;;;;;;14.00;6.67;;;;;;;-145.18;100.00;47277.69;5032242;28;20370;-65
2022/03/18 10:06:42;;;;;;;17.53;6.90;;;;;;;-145.18;100.00;47289.41;5030972;28;20425;-65
2022/03/18 10:09:08;;;;;;;16.80;5.53;;;;;;;-145.18;100.00;47295.28;5030106;28;20084;-65
2022/03/18 10:11:37;;;;;;;12.07;5.13;;;;;;;-145.18;100.00;47289.41;5030786;28;20271;-65
2022/03/18 10:14:06;;;;;;;12.53;4.67;;;;;;;-145.18;100.00;47283.56;5030615;28;20694;-65
2022/03/18 10:16:48;;;;;;;9.33;4.57;;;;;;;-145.18;100.00;47267.94;5030987;28;20402;-65
2022/03/18 10:19:21;;;;;;;14.33;5.73;;;;;;;-145.18;100.00;47271.84;5027417;28;20278;-65
2022/03/18 10:22:01;;;;;;;19.87;5.10;;;;;;;-145.18;100.00;47277.69;5030088;28;20285;-65
2022/03/18 10:24:31;;;;;;;13.43;5.33;;;;;;;-145.18;100.00;47264.03;5029523;28;20263;-65
2022/03/18 10:27:12;;;;;;;11.83;4.77;;;;;;;-145.18;100.00;47258.16;5031716;28;20092;-65
2022/03/18 10:29:50;;;;;;;13.53;5.17;;;;;;;-145.18;100.00;47277.69;5045382;28;20032;-65
2022/03/18 10:32:20;;;;;;;12.77;4.57;;;;;;;-145.18;100.00;47248.41;5030833;28;20048;-65
2022/03/18 10:37:45;;;;;;;18.13;5.97;;;;;;;-145.18;100.00;47248.41;5030778;28;20056;-65
2022/03/18 10:40:11;;;;;;;12.70;5.77;;;;;;;-145.18;100.00;47244.50;5028771;28;20034;-65
2022/03/18 10:42:37;;;;;;;12.70;5.63;;;;;;;-145.18;100.00;47242.53;5029965;28;20033;-65
2022/03/18 10:45:03;;;;;;;14.23;5.87;;;;;;;-145.18;100.00;47240.56;5029328;28;20032;-65
2022/03/18 10:47:35;;;;;;;18.67;5.90;;;;;;;-145.18;100.00;47232.75;5044951;28;20036;-65
2022/03/18 10:50:10;;;;;;;16.80;6.43;;;;;;;-145.18;100.00;47250.34;5048066;28;20037;-65
2022/03/18 10:52:59;;;;;;;17.27;6.37;;;;;;;-145.18;100.00;47230.81;5049101;28;20508;-65
2022/03/18 10:55:31;;;;;;;12.30;5.43;;;;;;;-145.18;100.00;47238.63;5049610;28;20546;-65
2022/03/18 10:58:04;;;;;;;15.50;6.27;;;;;;;-145.18;100.00;47217.13;5049848;28;20025;-65
2022/03/18 11:00:35;;;;;;;15.27;6.13;;;;;;;-145.18;100.00;47240.56;5031806;28;20028;-65
2022/03/18 11:03:02;;;;;;;17.07;6.80;;;;;;;-145.18;100.00;47238.63;5052010;28;20107;-65
2022/03/18 11:05:33;;;;;;;19.03;6.73;;;;;;;-145.18;100.00;47221.03;5069580;28;20040;-65
2022/03/18 11:08:04;;;;;;;11.40;6.10;;;;;;;-145.18;100.00;47226.91;5069800;28;20086;-65
2022/03/18 11:13:15;;;;;;;15.80;6.47;;;;;;;-145.18;100.00;47197.59;5069671;28;20079;-65
2022/03/18 11:15:43;;;;;;;14.93;6.03;;;;;;;-145.18;100.00;47199.56;5070082;28;20036;-65